Soaring Guidance
Issued by NWS Reno, NV

Current Version | Previous Version | Text Only | Print | Product List | Glossary On
Versions: 1 2 3 4 5 6 7 8 9 10 11 12 13
000
UXUS97 KREV 051446
SRGREV

SOARING FORECAST
NATIONAL WEATHER SERVICE - RENO NV
700 AM PST THU MAR 5 2015

THIS SOARING FORECAST IS FOR THE EASTERN SIERRA AND WESTERN NEVADA
WITH SPECIFIC INDICES FOR THE GREATER RENO AREA.

THIS FORECAST IS NOT UPDATED.

FOR CURRENT FLIGHT CONDITIONS...FORECASTS...AND ADVISORIES...ACCESS
YOUR LOCAL BRIEFING OUTLET OR FLIGHT SERVICE STATION.

*******************************************************************
LOCAL INDICES FOR RENO:                   TODAY     YESTERDAY
MAXIMUM TEMPERATURE AT RENO...(DEG F)...     61
TRIGGER TEMPERATURE...........(DEG F)...     53          46
   EXCEEDED YESTERDAY BY 20Z
MAXIMUM ALTITUDE..............(FT MSL)..  12300        9500
SOARING INDEX.................(FPM).....    579         225
FORECASTED K-INDEX.........VALID 18Z....      0           0
FORECASTED K-INDEX.........VALID 00Z....      2           0
FORECASTED LIFTED INDEX....VALID 18Z....      7           5
FORECASTED LIFTED INDEX....VALID 00Z....      7           4

AFTERNOON WINDS ALOFT FORECAST
MSL (FT) WIND/TEMP
9000  9900/+02
10000 9900/+00
12000 9900/-04
14000 9901/-08
16000 9902/-13
18000 3205/-18
24000 0212/-31
30000 0225/-46
34000 0229/-56
39000 0131/-63

SLIDE MOUNTAIN DATA:
 SLD HR 1350 M 29/1/1501/M  /SLIDE MTN UNOFFICIAL OBSERVATION

RENO TAF FORECAST:
KRNO 051124Z 0512/0612 VRB03KT P6SM SKC

CARSON CITY TAF FORECAST:
KCXP 051124Z 0512/0612 VRB03KT P6SM SKC
     FM052100 08010KT P6SM SKC
     FM060300 VRB03KT P6SM SKC

OUTLOOK FOR THE RENO-CARSON CITY-MINDEN AREA:
.FRIDAY...SUNNY. HIGHS 59 TO 64. LIGHT WINDS BECOMING EAST UP TO
10 MPH IN THE AFTERNOON.

SUNRISE AND SUNSET
MARCH  5 2015.........SUNRISE   626 AM PST   SUNSET   556 PM PST
MARCH  6 2015.........SUNRISE   625 AM PST   SUNSET   557 PM PST



THIS PRODUCT IS ROUTINELY PREPARED BY 700 AM AND IS
DISTRIBUTED TO THE RENO FLIGHT SERVICE STATION AS WELL AS THE
NATIONAL WEATHER SERVICE WORLD WIDE WEB HOMEPAGE AT:
       HTTP://WWW.WEATHER.GOV/RENO





USA.gov is the U.S. government's official web portal to all federal, state and local government web resources and services.